sensor_id;sensor_type;location;lat;lon;timestamp;P1;durP1;ratioP1;P2;durP2;ratioP2
26050;SDS011;13825;53.496;10.020;2023-01-16T00:00:52;4.63;;;3.43;;
26050;SDS011;13825;53.496;10.020;2023-01-16T00:03:29;7.13;;;3.63;;
26050;SDS011;13825;53.496;10.020;2023-01-16T00:06:05;7.93;;;4.03;;
26050;SDS011;13825;53.496;10.020;2023-01-16T00:08:50;7.87;;;3.57;;
26050;SDS011;13825;53.496;10.020;2023-01-16T00:18:22;8.17;;;3.47;;
26050;SDS011;13825;53.496;10.020;2023-01-16T00:21:49;4.77;;;2.90;;
26050;SDS011;13825;53.496;10.020;2023-01-16T00:24:22;5.53;;;3.20;;
26050;SDS011;13825;53.496;10.020;2023-01-16T00:26:59;4.67;;;3.17;;
26050;SDS011;13825;53.496;10.020;2023-01-16T00:29:36;6.67;;;3.23;;
26050;SDS011;13825;53.496;10.020;2023-01-16T00:32:12;5.03;;;3.07;;
26050;SDS011;13825;53.496;10.020;2023-01-16T00:35:01;8.43;;;3.60;;
26050;SDS011;13825;53.496;10.020;2023-01-16T00:37:31;7.13;;;3.07;;
26050;SDS011;13825;53.496;10.020;2023-01-16T00:40:06;6.03;;;2.57;;
26050;SDS011;13825;53.496;10.020;2023-01-16T00:42:36;3.80;;;2.23;;
26050;SDS011;13825;53.496;10.020;2023-01-16T00:45:04;5.23;;;2.70;;
26050;SDS011;13825;53.496;10.020;2023-01-16T00:47:34;4.50;;;2.80;;
26050;SDS011;13825;53.496;10.020;2023-01-16T00:50:08;3.60;;;2.57;;
26050;SDS011;13825;53.496;10.020;2023-01-16T00:52:39;3.37;;;2.50;;
26050;SDS011;13825;53.496;10.020;2023-01-16T00:55:11;3.20;;;2.33;;
26050;SDS011;13825;53.496;10.020;2023-01-16T00:57:41;5.63;;;2.13;;
26050;SDS011;13825;53.496;10.020;2023-01-16T01:00:09;5.83;;;2.80;;
26050;SDS011;13825;53.496;10.020;2023-01-16T01:02:39;3.07;;;2.23;;
26050;SDS011;13825;53.496;10.020;2023-01-16T01:05:15;7.83;;;2.87;;
26050;SDS011;13825;53.496;10.020;2023-01-16T01:08:12;2.73;;;2.00;;
26050;SDS011;13825;53.496;10.020;2023-01-16T01:32:30;3.37;;;2.00;;
26050;SDS011;13825;53.496;10.020;2023-01-16T02:05:00;4.40;;;1.60;;
26050;SDS011;13825;53.496;10.020;2023-01-16T02:07:37;3.53;;;1.60;;
26050;SDS011;13825;53.496;10.020;2023-01-16T02:10:14;5.43;;;1.70;;
26050;SDS011;13825;53.496;10.020;2023-01-16T02:12:57;1.77;;;1.50;;
26050;SDS011;13825;53.496;10.020;2023-01-16T02:15:43;1.70;;;1.60;;
26050;SDS011;13825;53.496;10.020;2023-01-16T02:45:40;1.83;;;1.73;;
26050;SDS011;13825;53.496;10.020;2023-01-16T02:48:32;2.23;;;1.33;;
26050;SDS011;13825;53.496;10.020;2023-01-16T02:51:21;4.07;;;1.80;;
26050;SDS011;13825;53.496;10.020;2023-01-16T02:53:59;2.27;;;1.67;;
26050;SDS011;13825;53.496;10.020;2023-01-16T02:56:42;2.70;;;1.47;;
26050;SDS011;13825;53.496;10.020;2023-01-16T02:59:13;3.40;;;1.40;;
26050;SDS011;13825;53.496;10.020;2023-01-16T03:01:43;3.10;;;1.50;;
26050;SDS011;13825;53.496;10.020;2023-01-16T03:07:27;3.20;;;1.80;;
26050;SDS011;13825;53.496;10.020;2023-01-16T03:10:25;2.83;;;1.50;;
26050;SDS011;13825;53.496;10.020;2023-01-16T03:16:10;2.70;;;1.67;;
26050;SDS011;13825;53.496;10.020;2023-01-16T03:18:49;2.97;;;1.37;;
26050;SDS011;13825;53.496;10.020;2023-01-16T03:21:20;1.90;;;1.40;;
26050;SDS011;13825;53.496;10.020;2023-01-16T03:23:56;2.60;;;1.70;;
26050;SDS011;13825;53.496;10.020;2023-01-16T03:26:31;2.10;;;1.50;;
26050;SDS011;13825;53.496;10.020;2023-01-16T03:29:05;4.03;;;1.70;;
26050;SDS011;13825;53.496;10.020;2023-01-16T03:41:57;3.03;;;1.20;;
26050;SDS011;13825;53.496;10.020;2023-01-16T03:44:38;3.73;;;1.70;;
26050;SDS011;13825;53.496;10.020;2023-01-16T03:47:22;3.97;;;1.47;;
26050;SDS011;13825;53.496;10.020;2023-01-16T03:50:09;1.93;;;1.40;;
26050;SDS011;13825;53.496;10.020;2023-01-16T03:52:53;2.60;;;1.80;;
26050;SDS011;13825;53.496;10.020;2023-01-16T03:55:42;2.57;;;1.47;;
26050;SDS011;13825;53.496;10.020;2023-01-16T03:58:24;7.53;;;1.97;;
26050;SDS011;13825;53.496;10.020;2023-01-16T04:01:54;5.13;;;1.80;;
26050;SDS011;13825;53.496;10.020;2023-01-16T04:05:52;10.20;;;1.50;;
26050;SDS011;13825;53.496;10.020;2023-01-16T04:08:57;2.37;;;1.40;;
26050;SDS011;13825;53.496;10.020;2023-01-16T04:11:35;3.40;;;1.40;;
26050;SDS011;13825;53.496;10.020;2023-01-16T04:14:04;4.17;;;1.40;;
26050;SDS011;13825;53.496;10.020;2023-01-16T04:16:41;3.23;;;1.33;;
26050;SDS011;13825;53.496;10.020;2023-01-16T04:19:18;4.30;;;1.57;;
26050;SDS011;13825;53.496;10.020;2023-01-16T04:21:56;3.47;;;1.50;;
26050;SDS011;13825;53.496;10.020;2023-01-16T04:24:34;4.20;;;1.83;;
26050;SDS011;13825;53.496;10.020;2023-01-16T04:29:27;2.30;;;1.33;;
26050;SDS011;13825;53.496;10.020;2023-01-16T04:37:47;2.77;;;1.50;;
26050;SDS011;13825;53.496;10.020;2023-01-16T04:40:16;6.63;;;1.77;;
26050;SDS011;13825;53.496;10.020;2023-01-16T04:42:55;3.80;;;1.37;;
26050;SDS011;13825;53.496;10.020;2023-01-16T04:45:34;2.17;;;1.10;;
26050;SDS011;13825;53.496;10.020;2023-01-16T04:48:16;4.00;;;1.37;;
26050;SDS011;13825;53.496;10.020;2023-01-16T04:50:53;1.50;;;1.10;;
26050;SDS011;13825;53.496;10.020;2023-01-16T04:53:49;2.47;;;1.20;;
26050;SDS011;13825;53.496;10.020;2023-01-16T04:56:54;3.23;;;1.77;;
26050;SDS011;13825;53.496;10.020;2023-01-16T04:59:51;1.23;;;1.07;;
26050;SDS011;13825;53.496;10.020;2023-01-16T05:02:49;2.10;;;1.00;;
26050;SDS011;13825;53.496;10.020;2023-01-16T05:08:46;4.47;;;1.60;;
26050;SDS011;13825;53.496;10.020;2023-01-16T05:11:27;1.27;;;1.07;;
26050;SDS011;13825;53.496;10.020;2023-01-16T05:16:59;1.97;;;1.23;;
26050;SDS011;13825;53.496;10.020;2023-01-16T05:19:30;2.87;;;1.40;;
26050;SDS011;13825;53.496;10.020;2023-01-16T05:22:03;2.07;;;0.97;;
26050;SDS011;13825;53.496;10.020;2023-01-16T05:24:52;7.17;;;1.30;;
26050;SDS011;13825;53.496;10.020;2023-01-16T05:28:10;1.47;;;1.10;;
26050;SDS011;13825;53.496;10.020;2023-01-16T05:30:30;2.60;;;1.23;;
26050;SDS011;13825;53.496;10.020;2023-01-16T05:32:58;4.33;;;1.10;;
26050;SDS011;13825;53.496;10.020;2023-01-16T05:38:28;3.17;;;1.20;;
26050;SDS011;13825;53.496;10.020;2023-01-16T05:41:09;2.30;;;1.20;;
26050;SDS011;13825;53.496;10.020;2023-01-16T05:43:52;2.07;;;1.10;;
26050;SDS011;13825;53.496;10.020;2023-01-16T05:46:25;4.13;;;1.10;;
26050;SDS011;13825;53.496;10.020;2023-01-16T05:48:56;4.40;;;1.33;;
26050;SDS011;13825;53.496;10.020;2023-01-16T05:51:32;3.33;;;1.33;;
26050;SDS011;13825;53.496;10.020;2023-01-16T06:17:38;2.73;;;0.90;;
26050;SDS011;13825;53.496;10.020;2023-01-16T06:20:54;1.77;;;1.00;;
26050;SDS011;13825;53.496;10.020;2023-01-16T06:23:23;2.23;;;1.87;;
26050;SDS011;13825;53.496;10.020;2023-01-16T06:25:51;1.53;;;1.00;;
26050;SDS011;13825;53.496;10.020;2023-01-16T06:28:18;3.37;;;0.90;;
26050;SDS011;13825;53.496;10.020;2023-01-16T06:30:50;3.13;;;1.33;;
26050;SDS011;13825;53.496;10.020;2023-01-16T06:33:18;2.43;;;1.20;;
26050;SDS011;13825;53.496;10.020;2023-01-16T06:35:45;1.97;;;0.90;;
26050;SDS011;13825;53.496;10.020;2023-01-16T06:38:14;1.87;;;1.17;;
26050;SDS011;13825;53.496;10.020;2023-01-16T06:40:40;1.20;;;0.83;;
26050;SDS011;13825;53.496;10.020;2023-01-16T06:43:09;4.93;;;1.00;;
26050;SDS011;13825;53.496;10.020;2023-01-16T06:45:36;4.87;;;1.27;;
26050;SDS011;13825;53.496;10.020;2023-01-16T06:48:05;1.67;;;0.90;;
26050;SDS011;13825;53.496;10.020;2023-01-16T06:50:32;1.03;;;0.80;;
26050;SDS011;13825;53.496;10.020;2023-01-16T06:52:59;2.53;;;1.10;;
26050;SDS011;13825;53.496;10.020;2023-01-16T06:55:26;2.00;;;1.30;;
26050;SDS011;13825;53.496;10.020;2023-01-16T06:57:52;3.73;;;1.20;;
26050;SDS011;13825;53.496;10.020;2023-01-16T07:00:19;2.50;;;1.33;;
26050;SDS011;13825;53.496;10.020;2023-01-16T07:02:50;1.43;;;1.00;;
26050;SDS011;13825;53.496;10.020;2023-01-16T07:05:21;3.90;;;1.30;;
26050;SDS011;13825;53.496;10.020;2023-01-16T07:07:48;1.83;;;1.10;;
26050;SDS011;13825;53.496;10.020;2023-01-16T07:10:16;3.00;;;0.93;;
26050;SDS011;13825;53.496;10.020;2023-01-16T07:12:45;3.10;;;1.07;;
26050;SDS011;13825;53.496;10.020;2023-01-16T07:15:13;1.27;;;1.03;;
26050;SDS011;13825;53.496;10.020;2023-01-16T07:17:57;1.07;;;0.93;;
26050;SDS011;13825;53.496;10.020;2023-01-16T07:20:43;2.67;;;1.30;;
26050;SDS011;13825;53.496;10.020;2023-01-16T07:23:34;2.10;;;1.03;;
26050;SDS011;13825;53.496;10.020;2023-01-16T07:26:02;1.70;;;1.50;;
26050;SDS011;13825;53.496;10.020;2023-01-16T07:28:32;3.20;;;0.90;;
26050;SDS011;13825;53.496;10.020;2023-01-16T07:31:00;2.43;;;1.00;;
26050;SDS011;13825;53.496;10.020;2023-01-16T07:33:28;1.63;;;1.03;;
26050;SDS011;13825;53.496;10.020;2023-01-16T07:35:57;1.87;;;1.00;;
26050;SDS011;13825;53.496;10.020;2023-01-16T07:38:24;1.10;;;1.00;;
26050;SDS011;13825;53.496;10.020;2023-01-16T07:40:51;1.53;;;0.83;;
26050;SDS011;13825;53.496;10.020;2023-01-16T07:43:18;1.10;;;0.93;;
26050;SDS011;13825;53.496;10.020;2023-01-16T07:45:44;2.53;;;0.90;;
26050;SDS011;13825;53.496;10.020;2023-01-16T07:48:17;2.37;;;1.30;;
26050;SDS011;13825;53.496;10.020;2023-01-16T07:50:48;2.23;;;1.10;;
26050;SDS011;13825;53.496;10.020;2023-01-16T07:53:18;3.67;;;1.03;;
26050;SDS011;13825;53.496;10.020;2023-01-16T07:55:47;1.53;;;1.10;;
26050;SDS011;13825;53.496;10.020;2023-01-16T07:58:14;3.77;;;1.30;;
26050;SDS011;13825;53.496;10.020;2023-01-16T08:00:42;1.07;;;0.93;;
26050;SDS011;13825;53.496;10.020;2023-01-16T08:03:09;2.17;;;1.10;;
26050;SDS011;13825;53.496;10.020;2023-01-16T08:05:36;1.27;;;0.93;;
26050;SDS011;13825;53.496;10.020;2023-01-16T08:08:03;1.20;;;1.10;;
26050;SDS011;13825;53.496;10.020;2023-01-16T08:10:32;2.07;;;0.83;;
26050;SDS011;13825;53.496;10.020;2023-01-16T08:12:58;2.20;;;0.90;;
26050;SDS011;13825;53.496;10.020;2023-01-16T08:15:25;1.27;;;1.13;;
26050;SDS011;13825;53.496;10.020;2023-01-16T08:17:53;6.20;;;1.30;;
26050;SDS011;13825;53.496;10.020;2023-01-16T08:20:20;5.80;;;1.23;;
26050;SDS011;13825;53.496;10.020;2023-01-16T08:22:48;3.30;;;0.87;;
26050;SDS011;13825;53.496;10.020;2023-01-16T08:25:16;2.40;;;1.20;;
26050;SDS011;13825;53.496;10.020;2023-01-16T08:27:46;2.73;;;1.43;;
26050;SDS011;13825;53.496;10.020;2023-01-16T08:30:14;1.80;;;1.00;;
26050;SDS011;13825;53.496;10.020;2023-01-16T08:32:42;6.63;;;2.23;;
26050;SDS011;13825;53.496;10.020;2023-01-16T08:35:09;2.70;;;1.20;;
26050;SDS011;13825;53.496;10.020;2023-01-16T08:37:36;1.70;;;1.30;;
26050;SDS011;13825;53.496;10.020;2023-01-16T08:40:04;2.43;;;0.90;;
26050;SDS011;13825;53.496;10.020;2023-01-16T08:42:31;1.40;;;1.07;;
26050;SDS011;13825;53.496;10.020;2023-01-16T08:45:17;2.77;;;1.20;;
26050;SDS011;13825;53.496;10.020;2023-01-16T08:48:01;1.40;;;1.30;;
26050;SDS011;13825;53.496;10.020;2023-01-16T08:50:57;1.87;;;0.93;;
26050;SDS011;13825;53.496;10.020;2023-01-16T08:53:54;2.40;;;1.13;;
26050;SDS011;13825;53.496;10.020;2023-01-16T08:56:22;2.30;;;1.53;;
26050;SDS011;13825;53.496;10.020;2023-01-16T08:58:49;1.33;;;1.23;;
26050;SDS011;13825;53.496;10.020;2023-01-16T09:01:17;6.23;;;1.40;;
26050;SDS011;13825;53.496;10.020;2023-01-16T09:03:45;2.03;;;1.07;;
26050;SDS011;13825;53.496;10.020;2023-01-16T09:06:12;1.43;;;1.13;;
26050;SDS011;13825;53.496;10.020;2023-01-16T09:08:39;1.47;;;1.37;;
26050;SDS011;13825;53.496;10.020;2023-01-16T09:11:06;2.50;;;1.23;;
26050;SDS011;13825;53.496;10.020;2023-01-16T09:13:49;1.50;;;1.07;;
26050;SDS011;13825;53.496;10.020;2023-01-16T09:16:18;2.47;;;1.13;;
26050;SDS011;13825;53.496;10.020;2023-01-16T09:18:47;3.47;;;1.40;;
26050;SDS011;13825;53.496;10.020;2023-01-16T09:21:14;3.03;;;1.20;;
26050;SDS011;13825;53.496;10.020;2023-01-16T09:23:43;1.73;;;0.97;;
26050;SDS011;13825;53.496;10.020;2023-01-16T09:26:10;3.10;;;1.20;;
26050;SDS011;13825;53.496;10.020;2023-01-16T09:28:37;1.90;;;1.10;;
26050;SDS011;13825;53.496;10.020;2023-01-16T09:31:04;1.20;;;1.10;;
26050;SDS011;13825;53.496;10.020;2023-01-16T09:33:33;2.10;;;1.00;;
26050;SDS011;13825;53.496;10.020;2023-01-16T09:36:02;1.80;;;1.10;;
26050;SDS011;13825;53.496;10.020;2023-01-16T09:38:29;2.23;;;1.20;;
26050;SDS011;13825;53.496;10.020;2023-01-16T09:40:56;2.13;;;1.07;;
26050;SDS011;13825;53.496;10.020;2023-01-16T09:43:27;2.53;;;0.90;;
26050;SDS011;13825;53.496;10.020;2023-01-16T09:46:05;2.03;;;1.13;;
26050;SDS011;13825;53.496;10.020;2023-01-16T09:48:38;3.63;;;1.30;;
26050;SDS011;13825;53.496;10.020;2023-01-16T09:51:11;2.43;;;1.20;;
26050;SDS011;13825;53.496;10.020;2023-01-16T09:53:41;3.40;;;1.47;;
26050;SDS011;13825;53.496;10.020;2023-01-16T09:56:30;3.70;;;1.27;;
26050;SDS011;13825;53.496;10.020;2023-01-16T09:59:20;1.83;;;0.97;;
26050;SDS011;13825;53.496;10.020;2023-01-16T10:01:53;2.07;;;1.00;;
26050;SDS011;13825;53.496;10.020;2023-01-16T10:04:27;2.63;;;1.27;;
26050;SDS011;13825;53.496;10.020;2023-01-16T10:06:59;1.07;;;0.93;;
26050;SDS011;13825;53.496;10.020;2023-01-16T10:09:36;1.00;;;0.90;;
26050;SDS011;13825;53.496;10.020;2023-01-16T10:12:13;1.10;;;0.87;;
26050;SDS011;13825;53.496;10.020;2023-01-16T10:14:52;3.23;;;1.77;;
26050;SDS011;13825;53.496;10.020;2023-01-16T10:17:31;1.20;;;1.10;;
26050;SDS011;13825;53.496;10.020;2023-01-16T10:20:37;3.20;;;1.43;;
26050;SDS011;13825;53.496;10.020;2023-01-16T10:23:15;1.63;;;1.03;;
26050;SDS011;13825;53.496;10.020;2023-01-16T10:25:56;3.40;;;1.10;;
26050;SDS011;13825;53.496;10.020;2023-01-16T10:28:36;2.63;;;1.50;;
26050;SDS011;13825;53.496;10.020;2023-01-16T10:31:20;2.20;;;1.40;;
26050;SDS011;13825;53.496;10.020;2023-01-16T10:33:52;1.10;;;1.00;;
26050;SDS011;13825;53.496;10.020;2023-01-16T10:36:26;2.23;;;1.00;;
26050;SDS011;13825;53.496;10.020;2023-01-16T10:38:56;4.53;;;0.93;;
26050;SDS011;13825;53.496;10.020;2023-01-16T10:41:26;2.67;;;1.10;;
26050;SDS011;13825;53.496;10.020;2023-01-16T10:44:18;2.00;;;1.00;;
26050;SDS011;13825;53.496;10.020;2023-01-16T10:47:10;2.40;;;1.00;;
26050;SDS011;13825;53.496;10.020;2023-01-16T10:49:55;1.13;;;1.07;;
26050;SDS011;13825;53.496;10.020;2023-01-16T10:52:24;3.37;;;1.23;;
26050;SDS011;13825;53.496;10.020;2023-01-16T10:54:51;1.27;;;0.97;;
26050;SDS011;13825;53.496;10.020;2023-01-16T10:57:20;1.13;;;0.97;;
26050;SDS011;13825;53.496;10.020;2023-01-16T10:59:49;1.53;;;1.30;;
26050;SDS011;13825;53.496;10.020;2023-01-16T11:02:18;0.80;;;0.80;;
26050;SDS011;13825;53.496;10.020;2023-01-16T11:04:50;1.60;;;0.83;;
26050;SDS011;13825;53.496;10.020;2023-01-16T11:07:19;1.30;;;1.10;;
26050;SDS011;13825;53.496;10.020;2023-01-16T11:09:49;1.33;;;1.10;;
26050;SDS011;13825;53.496;10.020;2023-01-16T11:12:19;2.50;;;1.30;;
26050;SDS011;13825;53.496;10.020;2023-01-16T11:15:09;1.40;;;0.80;;
26050;SDS011;13825;53.496;10.020;2023-01-16T11:17:59;1.83;;;1.17;;
26050;SDS011;13825;53.496;10.020;2023-01-16T11:20:52;6.93;;;1.53;;
26050;SDS011;13825;53.496;10.020;2023-01-16T11:23:20;1.93;;;0.93;;
26050;SDS011;13825;53.496;10.020;2023-01-16T11:25:50;0.83;;;0.83;;
26050;SDS011;13825;53.496;10.020;2023-01-16T11:28:20;2.77;;;0.90;;
26050;SDS011;13825;53.496;10.020;2023-01-16T11:30:51;2.27;;;0.90;;
26050;SDS011;13825;53.496;10.020;2023-01-16T11:33:20;2.20;;;1.00;;
26050;SDS011;13825;53.496;10.020;2023-01-16T11:35:51;2.10;;;0.90;;
26050;SDS011;13825;53.496;10.020;2023-01-16T11:38:21;1.40;;;0.80;;
26050;SDS011;13825;53.496;10.020;2023-01-16T11:40:52;2.20;;;0.90;;
26050;SDS011;13825;53.496;10.020;2023-01-16T11:43:23;3.30;;;1.10;;
26050;SDS011;13825;53.496;10.020;2023-01-16T11:46:19;2.13;;;1.10;;
26050;SDS011;13825;53.496;10.020;2023-01-16T11:49:04;4.30;;;1.20;;
26050;SDS011;13825;53.496;10.020;2023-01-16T11:51:40;1.07;;;0.90;;
26050;SDS011;13825;53.496;10.020;2023-01-16T11:54:11;1.33;;;0.80;;
26050;SDS011;13825;53.496;10.020;2023-01-16T11:59:32;1.37;;;0.93;;
26050;SDS011;13825;53.496;10.020;2023-01-16T12:02:13;0.87;;;0.70;;
26050;SDS011;13825;53.496;10.020;2023-01-16T12:05:08;1.17;;;0.83;;
26050;SDS011;13825;53.496;10.020;2023-01-16T12:08:03;1.60;;;1.00;;
26050;SDS011;13825;53.496;10.020;2023-01-16T12:10:47;2.00;;;1.33;;
26050;SDS011;13825;53.496;10.020;2023-01-16T12:13:24;4.63;;;1.10;;
26050;SDS011;13825;53.496;10.020;2023-01-16T12:16:25;2.73;;;0.80;;
26050;SDS011;13825;53.496;10.020;2023-01-16T12:19:08;1.87;;;1.00;;
26050;SDS011;13825;53.496;10.020;2023-01-16T12:21:48;2.03;;;1.00;;
26050;SDS011;13825;53.496;10.020;2023-01-16T12:24:23;2.07;;;0.93;;
26050;SDS011;13825;53.496;10.020;2023-01-16T12:27:02;3.10;;;1.00;;
26050;SDS011;13825;53.496;10.020;2023-01-16T12:29:45;5.77;;;1.20;;
26050;SDS011;13825;53.496;10.020;2023-01-16T12:32:40;1.90;;;1.00;;
26050;SDS011;13825;53.496;10.020;2023-01-16T12:35:20;3.23;;;1.40;;
26050;SDS011;13825;53.496;10.020;2023-01-16T12:38:06;2.40;;;1.43;;
26050;SDS011;13825;53.496;10.020;2023-01-16T12:40:41;1.20;;;1.10;;
26050;SDS011;13825;53.496;10.020;2023-01-16T12:43:47;3.07;;;1.03;;
26050;SDS011;13825;53.496;10.020;2023-01-16T12:46:26;1.20;;;1.00;;
26050;SDS011;13825;53.496;10.020;2023-01-16T12:49:01;3.13;;;1.13;;
26050;SDS011;13825;53.496;10.020;2023-01-16T12:51:45;1.10;;;1.00;;
26050;SDS011;13825;53.496;10.020;2023-01-16T13:00:09;3.43;;;1.17;;
26050;SDS011;13825;53.496;10.020;2023-01-16T13:02:41;0.70;;;0.70;;
26050;SDS011;13825;53.496;10.020;2023-01-16T13:05:12;1.30;;;0.90;;
26050;SDS011;13825;53.496;10.020;2023-01-16T13:07:44;1.57;;;1.17;;
26050;SDS011;13825;53.496;10.020;2023-01-16T13:10:18;2.93;;;1.07;;
26050;SDS011;13825;53.496;10.020;2023-01-16T13:13:08;1.97;;;0.80;;
26050;SDS011;13825;53.496;10.020;2023-01-16T13:15:49;2.17;;;1.20;;
26050;SDS011;13825;53.496;10.020;2023-01-16T13:18:27;1.20;;;0.83;;
26050;SDS011;13825;53.496;10.020;2023-01-16T13:20:58;1.67;;;1.10;;
26050;SDS011;13825;53.496;10.020;2023-01-16T13:23:30;1.10;;;1.00;;
26050;SDS011;13825;53.496;10.020;2023-01-16T13:25:59;1.33;;;0.80;;
26050;SDS011;13825;53.496;10.020;2023-01-16T13:28:34;1.47;;;0.87;;
26050;SDS011;13825;53.496;10.020;2023-01-16T13:31:12;2.20;;;1.00;;
26050;SDS011;13825;53.496;10.020;2023-01-16T13:33:47;1.47;;;0.97;;
26050;SDS011;13825;53.496;10.020;2023-01-16T13:36:25;1.23;;;1.07;;
26050;SDS011;13825;53.496;10.020;2023-01-16T13:39:17;1.97;;;1.10;;
26050;SDS011;13825;53.496;10.020;2023-01-16T13:42:03;1.43;;;0.97;;
26050;SDS011;13825;53.496;10.020;2023-01-16T13:44:33;1.37;;;1.07;;
26050;SDS011;13825;53.496;10.020;2023-01-16T13:47:21;1.47;;;0.70;;
26050;SDS011;13825;53.496;10.020;2023-01-16T13:49:54;1.67;;;1.00;;
26050;SDS011;13825;53.496;10.020;2023-01-16T13:52:30;1.43;;;1.03;;
26050;SDS011;13825;53.496;10.020;2023-01-16T13:54:58;3.23;;;1.20;;
26050;SDS011;13825;53.496;10.020;2023-01-16T13:57:27;1.37;;;1.20;;
26050;SDS011;13825;53.496;10.020;2023-01-16T13:59:55;2.80;;;0.97;;
26050;SDS011;13825;53.496;10.020;2023-01-16T14:02:25;1.40;;;1.20;;
26050;SDS011;13825;53.496;10.020;2023-01-16T14:05:25;3.30;;;1.27;;
26050;SDS011;13825;53.496;10.020;2023-01-16T14:08:19;2.13;;;1.07;;
26050;SDS011;13825;53.496;10.020;2023-01-16T14:11:28;2.40;;;1.40;;
26050;SDS011;13825;53.496;10.020;2023-01-16T14:14:25;2.50;;;1.20;;
26050;SDS011;13825;53.496;10.020;2023-01-16T14:17:13;3.97;;;1.40;;
26050;SDS011;13825;53.496;10.020;2023-01-16T14:19:48;1.67;;;1.10;;
26050;SDS011;13825;53.496;10.020;2023-01-16T14:22:21;1.97;;;1.10;;
26050;SDS011;13825;53.496;10.020;2023-01-16T14:25:17;2.23;;;1.13;;
26050;SDS011;13825;53.496;10.020;2023-01-16T14:27:51;3.33;;;1.20;;
26050;SDS011;13825;53.496;10.020;2023-01-16T14:30:23;3.80;;;1.00;;
26050;SDS011;13825;53.496;10.020;2023-01-16T14:32:53;2.20;;;1.07;;
26050;SDS011;13825;53.496;10.020;2023-01-16T14:35:22;1.03;;;0.93;;
26050;SDS011;13825;53.496;10.020;2023-01-16T14:37:59;2.60;;;1.30;;
26050;SDS011;13825;53.496;10.020;2023-01-16T14:40:28;1.53;;;1.00;;
26050;SDS011;13825;53.496;10.020;2023-01-16T14:50:39;1.00;;;0.90;;
26050;SDS011;13825;53.496;10.020;2023-01-16T14:53:28;2.50;;;1.37;;
26050;SDS011;13825;53.496;10.020;2023-01-16T14:56:19;1.07;;;0.70;;
26050;SDS011;13825;53.496;10.020;2023-01-16T14:58:58;4.03;;;1.40;;
26050;SDS011;13825;53.496;10.020;2023-01-16T15:01:32;1.00;;;0.90;;
26050;SDS011;13825;53.496;10.020;2023-01-16T15:04:18;5.10;;;1.27;;
26050;SDS011;13825;53.496;10.020;2023-01-16T15:06:52;2.17;;;1.10;;
26050;SDS011;13825;53.496;10.020;2023-01-16T15:09:28;3.77;;;1.10;;
26050;SDS011;13825;53.496;10.020;2023-01-16T15:11:57;1.60;;;1.07;;
26050;SDS011;13825;53.496;10.020;2023-01-16T15:14:25;1.67;;;1.00;;
26050;SDS011;13825;53.496;10.020;2023-01-16T15:16:58;1.00;;;0.90;;
26050;SDS011;13825;53.496;10.020;2023-01-16T15:19:59;2.03;;;1.07;;
26050;SDS011;13825;53.496;10.020;2023-01-16T15:22:50;2.13;;;1.00;;
26050;SDS011;13825;53.496;10.020;2023-01-16T15:25:25;1.40;;;1.03;;
26050;SDS011;13825;53.496;10.020;2023-01-16T15:28:12;2.37;;;1.30;;
26050;SDS011;13825;53.496;10.020;2023-01-16T15:30:45;1.20;;;1.10;;
26050;SDS011;13825;53.496;10.020;2023-01-16T15:33:21;5.37;;;1.40;;
26050;SDS011;13825;53.496;10.020;2023-01-16T15:36:21;2.87;;;1.20;;
26050;SDS011;13825;53.496;10.020;2023-01-16T15:38:51;6.73;;;1.47;;
26050;SDS011;13825;53.496;10.020;2023-01-16T15:41:23;1.73;;;1.27;;
26050;SDS011;13825;53.496;10.020;2023-01-16T15:44:14;4.20;;;1.70;;
26050;SDS011;13825;53.496;10.020;2023-01-16T15:50:06;5.17;;;1.97;;
26050;SDS011;13825;53.496;10.020;2023-01-16T15:52:41;3.77;;;2.90;;
26050;SDS011;13825;53.496;10.020;2023-01-16T15:55:10;4.63;;;2.03;;
26050;SDS011;13825;53.496;10.020;2023-01-16T16:01:15;5.93;;;1.67;;
26050;SDS011;13825;53.496;10.020;2023-01-16T16:07:31;2.50;;;1.67;;
26050;SDS011;13825;53.496;10.020;2023-01-16T16:11:05;1.53;;;1.20;;
26050;SDS011;13825;53.496;10.020;2023-01-16T16:21:02;1.93;;;1.40;;
26050;SDS011;13825;53.496;10.020;2023-01-16T16:24:04;2.27;;;1.20;;
26050;SDS011;13825;53.496;10.020;2023-01-16T16:27:17;2.57;;;1.60;;
26050;SDS011;13825;53.496;10.020;2023-01-16T16:30:13;3.67;;;1.37;;
26050;SDS011;13825;53.496;10.020;2023-01-16T16:32:51;1.40;;;1.30;;
26050;SDS011;13825;53.496;10.020;2023-01-16T16:35:25;3.10;;;1.40;;
26050;SDS011;13825;53.496;10.020;2023-01-16T16:38:00;3.70;;;1.50;;
26050;SDS011;13825;53.496;10.020;2023-01-16T16:44:01;2.37;;;1.60;;
26050;SDS011;13825;53.496;10.020;2023-01-16T16:56:31;1.93;;;1.10;;
26050;SDS011;13825;53.496;10.020;2023-01-16T16:59:21;2.57;;;1.10;;
26050;SDS011;13825;53.496;10.020;2023-01-16T17:02:09;1.83;;;1.10;;
26050;SDS011;13825;53.496;10.020;2023-01-16T17:04:53;2.17;;;1.30;;
26050;SDS011;13825;53.496;10.020;2023-01-16T17:11:08;1.87;;;1.40;;
26050;SDS011;13825;53.496;10.020;2023-01-16T17:13:43;3.17;;;1.43;;
26050;SDS011;13825;53.496;10.020;2023-01-16T17:16:13;1.43;;;1.23;;
26050;SDS011;13825;53.496;10.020;2023-01-16T17:18:43;1.93;;;1.73;;
26050;SDS011;13825;53.496;10.020;2023-01-16T17:21:12;2.07;;;1.70;;
26050;SDS011;13825;53.496;10.020;2023-01-16T17:23:41;1.90;;;1.00;;
26050;SDS011;13825;53.496;10.020;2023-01-16T17:26:10;1.97;;;1.50;;
26050;SDS011;13825;53.496;10.020;2023-01-16T17:28:38;3.07;;;1.37;;
26050;SDS011;13825;53.496;10.020;2023-01-16T17:31:05;2.10;;;1.57;;
26050;SDS011;13825;53.496;10.020;2023-01-16T17:33:32;3.53;;;1.43;;
26050;SDS011;13825;53.496;10.020;2023-01-16T17:35:59;2.77;;;1.50;;
26050;SDS011;13825;53.496;10.020;2023-01-16T17:38:35;3.33;;;1.40;;
26050;SDS011;13825;53.496;10.020;2023-01-16T17:41:03;2.50;;;1.20;;
26050;SDS011;13825;53.496;10.020;2023-01-16T17:43:31;2.67;;;1.70;;
26050;SDS011;13825;53.496;10.020;2023-01-16T17:46:17;1.40;;;1.30;;
26050;SDS011;13825;53.496;10.020;2023-01-16T17:48:48;3.37;;;1.90;;
26050;SDS011;13825;53.496;10.020;2023-01-16T17:51:16;3.80;;;1.80;;
26050;SDS011;13825;53.496;10.020;2023-01-16T17:53:47;4.13;;;1.70;;
26050;SDS011;13825;53.496;10.020;2023-01-16T17:56:14;2.73;;;1.93;;
26050;SDS011;13825;53.496;10.020;2023-01-16T17:58:42;6.33;;;2.30;;
26050;SDS011;13825;53.496;10.020;2023-01-16T18:01:18;4.53;;;2.63;;
26050;SDS011;13825;53.496;10.020;2023-01-16T18:03:47;4.23;;;2.20;;
26050;SDS011;13825;53.496;10.020;2023-01-16T18:06:19;4.40;;;2.40;;
26050;SDS011;13825;53.496;10.020;2023-01-16T18:08:46;4.67;;;2.47;;
26050;SDS011;13825;53.496;10.020;2023-01-16T18:11:14;6.03;;;2.90;;
26050;SDS011;13825;53.496;10.020;2023-01-16T18:14:00;3.00;;;2.07;;
26050;SDS011;13825;53.496;10.020;2023-01-16T18:16:50;4.90;;;2.27;;
26050;SDS011;13825;53.496;10.020;2023-01-16T18:19:34;3.53;;;2.10;;
26050;SDS011;13825;53.496;10.020;2023-01-16T18:22:01;2.67;;;2.20;;
26050;SDS011;13825;53.496;10.020;2023-01-16T18:24:31;3.80;;;1.80;;
26050;SDS011;13825;53.496;10.020;2023-01-16T18:26:59;3.20;;;1.60;;
26050;SDS011;13825;53.496;10.020;2023-01-16T18:29:28;1.57;;;1.37;;
26050;SDS011;13825;53.496;10.020;2023-01-16T18:31:55;3.13;;;1.40;;
26050;SDS011;13825;53.496;10.020;2023-01-16T18:34:40;1.90;;;1.50;;
26050;SDS011;13825;53.496;10.020;2023-01-16T18:37:07;1.70;;;1.37;;
26050;SDS011;13825;53.496;10.020;2023-01-16T18:39:34;1.43;;;1.17;;
26050;SDS011;13825;53.496;10.020;2023-01-16T18:42:18;1.20;;;1.10;;
26050;SDS011;13825;53.496;10.020;2023-01-16T18:45:04;2.00;;;1.40;;